Albion, Washington
Current Conditions -  °F | °C
As of 9:53 PM on Thursday 18 Dec 2014 (Local Time) from KPUW Reporting Station
Overcast Overcast  
Wind Chill:   Ceiling: 8000
Heat Index:   Visibility: 10mi
Dew Point:   Wind: 12mph
Humidity: 79%   Direction: 110°ESE
Pressure: 29.95"   Gusts: NA
Location:  46.79°N, 117.25°W
Report Text: KPUW 190553Z AUTO 11010KT 10SM SCT050 OVC080 05/02 A2995 RMK AO2 SLP155 T00500017 10050 20039 56007
Loading
Personal Weather Stations






























Interactive Weather Map New forecast layout! Learn more

10-Day Weather Forecast

Advertisements
Track Severe Weather on mobile